Time;durP1;ratioP1;P1;durP2;ratioP2;P2;SDS_P1;SDS_P2;PMS_P1;PMS_P2;Temp;Humidity;BMP_temperature;BMP_pressure;BME280_temperature;BME280_humidity;BME280_pressure;Samples;Min_cycle;Max_cycle;Signal;HPM_P1;HPM_P2
2023/01/15 00:02:22;;;;;;;;;;;17.10;69.00;;;;;;7405620;19;19978;-68
2023/01/15 00:04:52;;;;;;;1.58;0.43;;;17.20;69.00;;;;;;7403198;19;19948;-69
2023/01/15 00:07:21;;;;;;;;;;;17.20;68.90;;;;;;7408003;19;19978;-68
2023/01/15 00:09:54;;;;;;;1.48;0.10;;;17.20;68.90;;;;;;7403005;19;19922;-68
2023/01/15 00:12:23;;;;;;;1.30;0.50;;;17.20;68.80;;;;;;7403001;19;19926;-69
2023/01/15 00:14:52;;;;;;;1.52;0.47;;;17.20;68.80;;;;;;7403128;19;19921;-68
2023/01/15 00:17:21;;;;;;;0.90;0.10;;;17.20;68.70;;;;;;7402444;19;19923;-69
2023/01/15 00:19:51;;;;;;;1.23;0.10;;;17.20;68.70;;;;;;7403158;19;19922;-69
2023/01/15 00:22:20;;;;;;;1.30;0.10;;;17.20;68.70;;;;;;7402734;19;19915;-69
2023/01/15 00:27:44;;;;;;;0.70;0.10;;;17.20;68.80;;;;;;7402634;19;19918;-69
2023/01/15 00:30:16;;;;;;;0.80;0.10;;;17.20;68.80;;;;;;7401833;19;19918;-69
2023/01/15 00:32:46;;;;;;;0.60;0.30;;;17.10;68.80;;;;;;7400725;19;19914;-69
2023/01/15 00:35:17;;;;;;;1.30;0.55;;;17.10;68.90;;;;;;7402563;19;19918;-69
2023/01/15 00:37:46;;;;;;;2.53;1.00;;;17.10;68.90;;;;;;7402422;19;19914;-68
2023/01/15 00:40:19;;;;;;;0.80;0.10;;;17.10;68.90;;;;;;7401935;19;19947;-69
2023/01/15 00:42:50;;;;;;;1.33;0.57;;;17.00;68.90;;;;;;7402046;19;19925;-69
2023/01/15 00:45:21;;;;;;;1.17;0.10;;;17.00;68.90;;;;;;7401963;19;19918;-69
2023/01/15 00:47:50;;;;;;;1.90;0.55;;;17.00;69.00;;;;;;7401802;19;20640;-69
2023/01/15 00:50:19;;;;;;;1.20;0.60;;;17.00;69.00;;;;;;7407614;19;19914;-69
2023/01/15 00:52:48;;;;;;;1.98;1.88;;;16.90;69.00;;;;;;7408234;19;19938;-69
2023/01/15 00:55:17;;;;;;;1.17;0.15;;;16.90;69.10;;;;;;7408461;19;19977;-69
2023/01/15 00:57:46;;;;;;;0.88;0.10;;;16.80;69.00;;;;;;7408421;19;19925;-68
2023/01/15 01:00:18;;;;;;;2.70;0.60;;;16.90;69.10;;;;;;7409235;19;19910;-68
2023/01/15 01:02:48;;;;;;;2.35;0.43;;;16.80;69.10;;;;;;7408289;19;19919;-69
2023/01/15 01:05:17;;;;;;;1.77;0.30;;;16.80;69.10;;;;;;7408178;19;19919;-69
2023/01/15 01:07:50;;;;;;;1.27;0.40;;;16.80;69.20;;;;;;7408143;19;19971;-69
2023/01/15 01:10:19;;;;;;;1.40;0.08;;;16.80;69.20;;;;;;7406907;19;19914;-69
2023/01/15 01:12:50;;;;;;;2.72;0.10;;;16.80;69.20;;;;;;7408558;19;19915;-69
2023/01/15 01:15:24;;;;;;;1.55;0.70;;;16.70;69.20;;;;;;7408066;19;19925;-68
2023/01/15 01:17:54;;;;;;;1.25;0.80;;;16.70;69.20;;;;;;7408065;19;19922;-69
2023/01/15 01:20:23;;;;;;;1.00;0.10;;;16.70;69.30;;;;;;7407785;19;20343;-69
2023/01/15 01:22:52;;;;;;;2.08;0.20;;;16.60;69.20;;;;;;7407723;19;19925;-69
2023/01/15 01:25:21;;;;;;;0.47;0.10;;;16.60;69.30;;;;;;7407874;19;19929;-69
2023/01/15 01:27:50;;;;;;;2.80;0.65;;;16.60;69.30;;;;;;7407655;19;19914;-69
2023/01/15 01:30:22;;;;;;;1.95;0.40;;;16.60;69.30;;;;;;7406963;19;19919;-69
2023/01/15 01:32:51;;;;;;;1.42;0.10;;;16.60;69.40;;;;;;7404997;19;19919;-69
2023/01/15 01:35:21;;;;;;;1.85;0.60;;;16.50;69.40;;;;;;7407718;19;19931;-69
2023/01/15 01:37:52;;;;;;;2.03;0.45;;;16.50;69.40;;;;;;7407372;19;19978;-68
2023/01/15 01:40:21;;;;;;;1.25;0.10;;;16.50;69.40;;;;;;7407160;19;19951;-69
2023/01/15 01:42:50;;;;;;;1.13;0.20;;;16.50;69.50;;;;;;7407448;19;19974;-69
2023/01/15 01:45:27;;;;;;;1.02;0.13;;;16.50;69.50;;;;;;7407236;19;19914;-70
2023/01/15 01:47:59;;;;;;;1.48;0.10;;;16.40;69.40;;;;;;7407596;19;19922;-69
2023/01/15 01:50:30;;;;;;;2.65;0.65;;;16.40;69.50;;;;;;7406308;19;19915;-69
2023/01/15 01:53:03;;;;;;;1.60;0.50;;;16.40;69.50;;;;;;7407124;19;19914;-69
2023/01/15 01:55:34;;;;;;;1.48;0.10;;;16.40;69.50;;;;;;7407191;19;19910;-69
2023/01/15 01:58:06;;;;;;;0.73;0.25;;;16.40;69.50;;;;;;7407046;19;19918;-69
2023/01/15 02:00:41;;;;;;;2.50;1.08;;;16.40;69.50;;;;;;7404585;19;19929;-69
2023/01/15 02:03:11;;;;;;;1.65;0.10;;;16.40;69.50;;;;;;7406733;19;20265;-69
2023/01/15 02:05:45;;;;;;;2.05;0.25;;;16.40;69.50;;;;;;7409254;19;19918;-69
2023/01/15 02:08:14;;;;;;;1.30;0.15;;;16.50;69.40;;;;;;7406847;19;19914;-69
2023/01/15 02:10:43;;;;;;;2.80;0.40;;;16.50;69.40;;;;;;7405700;19;19919;-69
2023/01/15 02:13:16;;;;;;;1.48;0.30;;;16.50;69.20;;;;;;7406300;19;19911;-69
2023/01/15 02:15:50;;;;;;;1.17;0.10;;;16.60;69.20;;;;;;7406374;19;19922;-69
2023/01/15 02:18:25;;;;;;;2.28;0.30;;;16.60;69.00;;;;;;7406157;19;19926;-69
2023/01/15 02:20:59;;;;;;;1.10;0.50;;;16.70;68.90;;;;;;7406657;19;19918;-69
2023/01/15 02:23:50;;;;;;;1.92;0.45;;;16.80;68.80;;;;;;7406677;19;20850;-69
2023/01/15 02:26:44;;;;;;;1.67;0.10;;;16.80;68.60;;;;;;7406121;19;19918;-69
2023/01/15 02:29:19;;;;;;;;;;;16.90;68.50;;;;;;7408247;19;19918;-69
2023/01/15 02:31:53;;;;;;;1.48;0.10;;;17.00;68.50;;;;;;7404590;19;20261;-69
2023/01/15 02:34:28;;;;;;;1.58;0.50;;;17.10;68.20;;;;;;7405659;19;19919;-69
2023/01/15 02:37:05;;;;;;;1.55;0.10;;;17.10;68.10;;;;;;7405706;19;19939;-69
2023/01/15 02:39:37;;;;;;;0.90;0.40;;;17.10;67.90;;;;;;7405664;19;19933;-69
2023/01/15 02:42:09;;;;;;;1.25;0.10;;;17.20;67.90;;;;;;7403737;19;19922;-69
2023/01/15 02:44:45;;;;;;;1.10;0.60;;;17.20;67.90;;;;;;7406951;19;19923;-69
2023/01/15 02:47:15;;;;;;;1.48;0.52;;;17.20;67.80;;;;;;7405768;19;19996;-69
2023/01/15 02:49:47;;;;;;;1.55;0.30;;;17.20;67.80;;;;;;7405789;19;19925;-69
2023/01/15 02:52:20;;;;;;;1.98;0.60;;;17.20;67.90;;;;;;7403362;19;19922;-69
2023/01/15 02:54:54;;;;;;;1.50;0.47;;;17.20;67.80;;;;;;7405009;19;19914;-69
2023/01/15 02:57:26;;;;;;;1.85;0.82;;;17.20;67.90;;;;;;7405381;19;19914;-68
2023/01/15 03:00:03;;;;;;;1.50;0.68;;;17.20;67.90;;;;;;7405463;19;20329;-69
2023/01/15 03:02:37;;;;;;;2.15;0.40;;;17.10;67.90;;;;;;7405526;19;19917;-69
2023/01/15 03:05:12;;;;;;;1.08;0.25;;;17.10;67.90;;;;;;7405145;19;19925;-69
2023/01/15 03:07:47;;;;;;;2.78;0.20;;;17.10;68.00;;;;;;7405084;19;19915;-69
2023/01/15 03:10:18;;;;;;;1.98;0.20;;;17.10;68.00;;;;;;7404521;19;19922;-69
2023/01/15 03:13:07;;;;;;;1.30;0.50;;;17.10;68.00;;;;;;7403645;19;19954;-70
2023/01/15 03:18:38;;;;;;;1.45;0.43;;;17.00;68.00;;;;;;7404519;19;20456;-69
2023/01/15 03:21:13;;;;;;;1.77;1.13;;;17.00;68.20;;;;;;7404498;19;19915;-69
2023/01/15 03:23:47;;;;;;;2.42;0.30;;;16.90;68.10;;;;;;7404803;19;19911;-69
2023/01/15 03:26:16;;;;;;;1.52;0.10;;;16.90;68.20;;;;;;7403935;19;20265;-68
2023/01/15 03:28:45;;;;;;;2.17;0.17;;;16.90;68.20;;;;;;7404429;19;20280;-69
2023/01/15 03:31:17;;;;;;;0.95;0.20;;;16.80;68.20;;;;;;7403153;19;19918;-68
2023/01/15 03:33:46;;;;;;;0.90;0.20;;;16.80;68.20;;;;;;7404161;19;20499;-68
2023/01/15 03:36:15;;;;;;;1.85;0.20;;;16.80;68.20;;;;;;7403942;19;20258;-68
2023/01/15 03:38:46;;;;;;;2.45;0.30;;;16.80;68.20;;;;;;7404298;19;19928;-68
2023/01/15 03:41:16;;;;;;;;;;;16.80;68.30;;;;;;7405455;19;19919;-68
2023/01/15 03:43:57;;;;;;;2.40;0.85;;;16.70;68.10;;;;;;7404702;19;19915;-69
2023/01/15 03:46:41;;;;;;;2.20;0.57;;;16.70;68.30;;;;;;7404000;19;19914;-69
2023/01/15 03:49:20;;;;;;;2.78;0.80;;;16.60;68.30;;;;;;7403821;19;19911;-68
2023/01/15 03:51:55;;;;;;;2.63;0.93;;;16.60;68.70;;;;;;7402422;19;19914;-69
2023/01/15 03:54:35;;;;;;;2.35;0.93;;;16.70;68.40;;;;;;7404320;19;19915;-69
2023/01/15 03:57:09;;;;;;;2.63;0.20;;;16.60;68.40;;;;;;7403518;19;19918;-69
2023/01/15 03:59:44;;;;;;;2.10;0.73;;;16.60;68.50;;;;;;7403581;19;19914;-68
2023/01/15 04:02:17;;;;;;;2.60;0.28;;;16.50;68.50;;;;;;7403604;19;19929;-69
2023/01/15 04:04:47;;;;;;;2.78;0.75;;;16.50;68.50;;;;;;7405421;19;19929;-69
2023/01/15 04:07:17;;;;;;;2.45;0.10;;;16.50;68.50;;;;;;7403721;19;20312;-69
2023/01/15 04:09:46;;;;;;;1.73;0.10;;;16.50;68.60;;;;;;7403570;19;19911;-69
2023/01/15 04:12:15;;;;;;;2.78;0.63;;;16.50;69.20;;;;;;7401777;19;19920;-68
2023/01/15 04:14:44;;;;;;;1.73;0.17;;;16.50;68.60;;;;;;7402932;19;20363;-68
2023/01/15 04:17:16;;;;;;;1.50;0.15;;;16.50;68.60;;;;;;7403320;19;19925;-69
2023/01/15 04:19:45;;;;;;;1.92;0.50;;;16.40;68.60;;;;;;7403182;19;19917;-69
2023/01/15 04:22:15;;;;;;;2.40;0.70;;;16.40;68.60;;;;;;7402934;19;20394;-69
2023/01/15 04:24:44;;;;;;;2.58;0.95;;;16.40;68.50;;;;;;7407924;19;19988;-69
2023/01/15 04:27:13;;;;;;;1.70;0.55;;;16.40;68.50;;;;;;7409489;19;19919;-69
2023/01/15 04:29:42;;;;;;;1.55;0.68;;;16.40;68.50;;;;;;7409598;19;20616;-68
2023/01/15 04:32:11;;;;;;;1.42;0.65;;;16.50;68.40;;;;;;7407276;19;19925;-68
2023/01/15 04:34:43;;;;;;;;;;;16.50;68.30;;;;;;7411474;19;19966;-69
2023/01/15 04:37:12;;;;;;;1.52;0.20;;;16.50;68.10;;;;;;7409256;19;19915;-69
2023/01/15 04:39:41;;;;;;;1.60;0.10;;;16.60;68.20;;;;;;7409362;19;19919;-69
2023/01/15 04:44:55;;;;;;;0.88;0.10;;;16.70;67.90;;;;;;7409121;19;19914;-68
2023/01/15 04:47:24;;;;;;;1.00;0.10;;;16.80;67.70;;;;;;7409305;19;19935;-69
2023/01/15 04:49:55;;;;;;;2.35;0.90;;;16.80;67.60;;;;;;7408700;19;19957;-69
2023/01/15 04:52:24;;;;;;;2.83;0.65;;;16.90;67.50;;;;;;7406442;19;19936;-69
2023/01/15 04:54:55;;;;;;;1.40;0.60;;;17.00;67.30;;;;;;7408651;19;19919;-69
2023/01/15 04:57:25;;;;;;;1.10;0.20;;;17.10;67.30;;;;;;7409134;19;19918;-69
2023/01/15 04:59:54;;;;;;;2.00;0.47;;;17.10;67.10;;;;;;7408276;19;19910;-69
2023/01/15 05:02:23;;;;;;;1.88;0.40;;;17.10;67.00;;;;;;7408527;19;19918;-69
2023/01/15 05:04:52;;;;;;;1.38;0.40;;;17.10;66.90;;;;;;7408456;19;19923;-69
2023/01/15 05:07:23;;;;;;;4.45;0.98;;;17.20;67.00;;;;;;7408490;19;19924;-69
2023/01/15 05:09:53;;;;;;;1.75;1.00;;;17.20;66.90;;;;;;7408229;19;19921;-69
2023/01/15 05:12:23;;;;;;;2.38;0.20;;;17.20;66.90;;;;;;7406086;19;19914;-69
2023/01/15 05:14:51;;;;;;;1.70;0.30;;;17.20;66.90;;;;;;7408134;19;19974;-69
2023/01/15 05:17:21;;;;;;;1.80;0.20;;;17.20;66.90;;;;;;7407467;19;20499;-69
2023/01/15 05:20:04;;;;;;;2.85;0.60;;;17.20;67.00;;;;;;7407983;19;20666;-69
2023/01/15 05:22:37;;;;;;;2.17;0.15;;;17.10;66.90;;;;;;7408218;19;19922;-69
2023/01/15 05:25:07;;;;;;;1.70;0.10;;;17.10;66.90;;;;;;7407443;19;19925;-68
2023/01/15 05:27:35;;;;;;;2.47;0.10;;;17.10;66.90;;;;;;7407904;19;19918;-68
2023/01/15 05:30:10;;;;;;;2.15;0.30;;;17.00;66.90;;;;;;7407446;19;19914;-69
2023/01/15 05:32:39;;;;;;;3.03;0.20;;;17.00;66.90;;;;;;7405160;19;20258;-69
2023/01/15 05:35:28;;;;;;;2.15;0.22;;;17.00;67.00;;;;;;7405279;19;19922;-69
2023/01/15 05:38:20;;;;;;;3.05;0.85;;;17.00;67.00;;;;;;7405822;19;19919;-68
2023/01/15 05:40:51;;;;;;;3.55;0.93;;;17.00;67.00;;;;;;7407207;19;19990;-69
2023/01/15 05:43:20;;;;;;;2.25;0.20;;;16.90;67.00;;;;;;7407498;19;19914;-69
2023/01/15 05:45:49;;;;;;;3.03;0.70;;;16.80;67.00;;;;;;7407645;19;19911;-69
2023/01/15 05:48:18;;;;;;;2.75;0.75;;;16.80;67.00;;;;;;7407055;19;19915;-69
2023/01/15 05:50:47;;;;;;;1.25;0.10;;;16.80;67.00;;;;;;7407067;19;20798;-69
2023/01/15 05:53:19;;;;;;;1.42;0.50;;;16.80;67.10;;;;;;7405081;19;19922;-69
2023/01/15 05:55:48;;;;;;;3.08;0.77;;;16.70;67.10;;;;;;7406648;19;19915;-69
2023/01/15 05:58:17;;;;;;;1.95;0.20;;;16.70;67.10;;;;;;7406935;19;19918;-69
2023/01/15 06:00:46;;;;;;;2.00;0.40;;;16.70;67.20;;;;;;7406485;19;19973;-68
2023/01/15 06:03:20;;;;;;;1.52;0.20;;;16.70;67.20;;;;;;7410165;19;19914;-69
2023/01/15 06:05:52;;;;;;;2.47;0.60;;;16.60;67.10;;;;;;7406536;19;19931;-69
2023/01/15 06:08:25;;;;;;;3.05;0.30;;;16.60;67.20;;;;;;7407122;19;19919;-68
2023/01/15 06:10:54;;;;;;;2.00;0.13;;;16.60;67.20;;;;;;7406379;19;19918;-69
2023/01/15 06:13:24;;;;;;;3.33;0.30;;;16.60;67.20;;;;;;7404350;19;19914;-68
2023/01/15 06:15:52;;;;;;;3.65;0.70;;;16.50;67.30;;;;;;7406191;19;19982;-69
2023/01/15 06:18:22;;;;;;;2.97;0.28;;;16.50;67.30;;;;;;7406496;19;19940;-69
2023/01/15 06:20:51;;;;;;;1.73;0.73;;;16.50;67.40;;;;;;7406529;19;19918;-69
2023/01/15 06:23:23;;;;;;;;;;;16.50;67.40;;;;;;7408279;19;19937;-68
2023/01/15 06:25:52;;;;;;;3.10;0.70;;;16.50;67.40;;;;;;7406008;19;19915;-69
2023/01/15 06:28:21;;;;;;;1.30;0.20;;;16.40;67.50;;;;;;7406197;19;19926;-69
2023/01/15 06:30:50;;;;;;;2.08;0.30;;;16.40;67.40;;;;;;7406124;19;20438;-68
2023/01/15 06:33:19;;;;;;;0.80;0.20;;;16.40;67.40;;;;;;7403904;19;19922;-69
2023/01/15 06:35:48;;;;;;;2.80;0.73;;;16.40;68.00;;;;;;7406147;19;19970;-69
2023/01/15 06:38:25;;;;;;;2.97;0.30;;;16.40;67.40;;;;;;7405621;19;19915;-68
2023/01/15 06:40:55;;;;;;;2.55;1.25;;;16.50;67.40;;;;;;7405193;19;20016;-68
2023/01/15 06:48:57;;;;;;;2.13;0.50;;;16.60;67.20;;;;;;7405292;19;19914;-69
2023/01/15 06:51:26;;;;;;;2.17;0.47;;;16.60;67.00;;;;;;7405797;19;19918;-66
2023/01/15 06:53:58;;;;;;;2.35;0.80;;;16.70;67.00;;;;;;7405778;19;19915;-67
2023/01/15 06:56:27;;;;;;;3.55;0.98;;;16.70;66.90;;;;;;7404878;19;19929;-66
2023/01/15 06:58:56;;;;;;;2.50;0.88;;;16.80;66.80;;;;;;7405473;19;19925;-66
2023/01/15 07:01:29;;;;;;;1.25;0.22;;;16.90;66.70;;;;;;7407102;19;19918;-66
2023/01/15 07:03:58;;;;;;;2.08;0.30;;;16.90;66.50;;;;;;7404858;19;20028;-66
2023/01/15 07:06:27;;;;;;;2.55;0.90;;;17.00;66.40;;;;;;7405770;19;19911;-66
2023/01/15 07:09:00;;;;;;;2.10;1.23;;;17.10;66.20;;;;;;7404902;19;19966;-66
2023/01/15 07:11:29;;;;;;;1.83;0.40;;;17.20;66.10;;;;;;7405110;19;20003;-67
2023/01/15 07:14:07;;;;;;;2.05;0.55;;;17.20;66.00;;;;;;7404591;19;20267;-66
2023/01/15 07:16:37;;;;;;;3.88;1.50;;;17.20;65.90;;;;;;7405129;19;19915;-66
2023/01/15 07:19:06;;;;;;;2.20;0.98;;;17.20;65.90;;;;;;7404695;19;20337;-66
2023/01/15 07:21:35;;;;;;;1.48;0.68;;;17.20;65.80;;;;;;7403326;19;19922;-67
2023/01/15 07:24:07;;;;;;;;;;;17.30;65.90;;;;;;7407505;19;19926;-67
2023/01/15 07:26:36;;;;;;;1.13;0.10;;;17.20;65.70;;;;;;7404075;19;19925;-66
2023/01/15 07:29:06;;;;;;;2.42;0.30;;;17.20;65.90;;;;;;7404844;19;19918;-66
2023/01/15 07:31:36;;;;;;;2.55;0.75;;;17.20;65.80;;;;;;7403991;19;19918;-66
2023/01/15 07:34:05;;;;;;;2.97;0.60;;;17.20;65.90;;;;;;7404122;19;20325;-66
2023/01/15 07:36:34;;;;;;;2.20;0.32;;;17.10;65.90;;;;;;7404643;19;19922;-66
2023/01/15 07:39:08;;;;;;;2.78;0.80;;;17.10;65.90;;;;;;7404273;19;19911;-67
2023/01/15 07:49:48;;;;;;;3.30;0.50;;;17.00;66.00;;;;;;7403762;19;20237;-68
2023/01/15 07:52:19;;;;;;;2.22;0.43;;;17.00;66.00;;;;;;7403623;19;19925;-68
2023/01/15 07:54:52;;;;;;;2.25;0.80;;;16.90;66.00;;;;;;7403837;19;19914;-68
2023/01/15 07:57:23;;;;;;;2.10;0.22;;;16.90;66.00;;;;;;7403664;19;19955;-68
2023/01/15 07:59:53;;;;;;;4.03;0.30;;;16.90;66.00;;;;;;7403903;19;20370;-68
2023/01/15 08:02:23;;;;;;;2.70;0.20;;;16.80;66.00;;;;;;7403801;19;19911;-68
2023/01/15 08:04:52;;;;;;;1.27;0.20;;;16.80;66.00;;;;;;7403706;19;19946;-68
2023/01/15 08:07:21;;;;;;;1.95;0.30;;;16.80;66.60;;;;;;7403425;19;20314;-68
2023/01/15 08:09:53;;;;;;;3.30;0.70;;;16.70;66.00;;;;;;7403230;19;20519;-68
2023/01/15 08:15:15;;;;;;;2.40;0.15;;;16.70;66.10;;;;;;7402952;19;20453;-68
2023/01/15 08:17:46;;;;;;;2.35;0.65;;;16.70;66.00;;;;;;7403369;19;20372;-68
2023/01/15 08:20:18;;;;;;;3.85;1.30;;;16.60;66.00;;;;;;7402849;19;19983;-68
2023/01/15 08:22:48;;;;;;;2.35;1.67;;;16.60;66.10;;;;;;7402837;19;20295;-68
2023/01/15 08:25:22;;;;;;;2.05;0.15;;;16.60;66.20;;;;;;7402620;19;19914;-68
2023/01/15 08:27:52;;;;;;;2.13;0.30;;;16.60;66.10;;;;;;7402836;19;19936;-68
2023/01/15 08:30:23;;;;;;;2.13;0.20;;;16.50;66.00;;;;;;7402739;19;19911;-69
2023/01/15 08:32:52;;;;;;;3.58;0.95;;;16.50;66.10;;;;;;7400465;19;19918;-67
2023/01/15 08:35:21;;;;;;;2.90;0.25;;;16.50;66.10;;;;;;7402008;19;19996;-68
2023/01/15 08:37:50;;;;;;;1.95;0.20;;;16.40;66.10;;;;;;7402334;19;20354;-68
2023/01/15 08:40:24;;;;;;;2.80;0.55;;;16.50;66.20;;;;;;7401865;19;19932;-68
2023/01/15 08:42:53;;;;;;;2.20;0.30;;;16.40;66.20;;;;;;7402203;19;19918;-68
2023/01/15 08:45:22;;;;;;;1.58;0.20;;;16.40;66.20;;;;;;7402333;19;19921;-68
2023/01/15 08:47:59;;;;;;;1.58;0.40;;;16.40;66.20;;;;;;7401975;19;19950;-68
2023/01/15 08:50:29;;;;;;;3.15;0.82;;;16.40;66.20;;;;;;7402124;19;19914;-68
2023/01/15 08:53:04;;;;;;;1.75;0.68;;;16.40;66.20;;;;;;7400738;19;19911;-68
2023/01/15 08:55:39;;;;;;;2.33;0.30;;;16.50;66.20;;;;;;7401668;19;19922;-68
2023/01/15 08:58:08;;;;;;;1.67;0.30;;;16.50;66.10;;;;;;7401775;19;19919;-68
2023/01/15 09:00:37;;;;;;;1.98;0.63;;;16.50;66.00;;;;;;7405493;19;19918;-68
2023/01/15 09:03:06;;;;;;;3.08;0.50;;;16.60;65.90;;;;;;7401475;19;19944;-68
2023/01/15 09:05:35;;;;;;;1.92;0.63;;;16.70;65.80;;;;;;7402303;19;19982;-68
2023/01/15 09:08:05;;;;;;;2.00;0.70;;;16.70;65.70;;;;;;7401732;19;20023;-68
2023/01/15 09:10:40;;;;;;;3.15;0.30;;;16.70;65.50;;;;;;7405826;19;19919;-68
2023/01/15 09:13:09;;;;;;;2.80;0.50;;;16.80;65.40;;;;;;7407123;19;19929;-68
2023/01/15 09:15:39;;;;;;;2.47;0.20;;;16.80;65.20;;;;;;7408392;19;19918;-68
2023/01/15 09:18:09;;;;;;;1.63;0.20;;;16.90;65.10;;;;;;7408443;19;19927;-69
2023/01/15 09:20:38;;;;;;;2.40;0.20;;;17.00;64.90;;;;;;7408381;19;19918;-68
2023/01/15 09:23:18;;;;;;;2.65;1.35;;;17.10;64.90;;;;;;7407524;19;19922;-68
2023/01/15 09:26:00;;;;;;;1.80;0.75;;;17.10;64.80;;;;;;7407124;19;19939;-68
2023/01/15 09:28:30;;;;;;;2.15;0.80;;;17.20;64.80;;;;;;7407752;19;19986;-68
2023/01/15 09:30:59;;;;;;;1.80;0.22;;;17.10;64.60;;;;;;7406856;19;20309;-68
2023/01/15 09:33:28;;;;;;;2.15;0.43;;;17.10;64.70;;;;;;7406398;19;19911;-68
2023/01/15 09:35:57;;;;;;;2.13;0.20;;;17.10;64.60;;;;;;7407544;19;19911;-68
2023/01/15 09:38:26;;;;;;;1.77;0.30;;;17.10;64.60;;;;;;7407364;19;20366;-68
2023/01/15 09:41:02;;;;;;;3.00;0.82;;;17.10;64.60;;;;;;7407213;19;19915;-69
2023/01/15 09:43:41;;;;;;;2.13;0.73;;;17.10;64.70;;;;;;7408270;19;19939;-68
2023/01/15 09:46:14;;;;;;;1.23;0.10;;;17.10;64.70;;;;;;7407119;19;20341;-68
2023/01/15 09:49:00;;;;;;;2.22;0.30;;;17.10;64.80;;;;;;7407054;19;19910;-68
2023/01/15 09:51:40;;;;;;;1.77;0.10;;;17.00;64.70;;;;;;7407354;19;19918;-68
2023/01/15 09:54:23;;;;;;;2.72;0.50;;;17.00;64.80;;;;;;7405240;19;19919;-69
2023/01/15 09:56:57;;;;;;;3.10;0.70;;;17.00;64.80;;;;;;7406475;19;19939;-69
2023/01/15 09:59:33;;;;;;;2.55;0.20;;;16.90;64.80;;;;;;7410011;19;19911;-68
2023/01/15 10:02:14;;;;;;;2.97;0.20;;;16.90;64.80;;;;;;7406706;19;20331;-68
2023/01/15 10:04:48;;;;;;;2.45;0.32;;;16.90;64.90;;;;;;7407018;19;20258;-68
2023/01/15 10:07:24;;;;;;;1.70;0.80;;;16.90;65.00;;;;;;7406852;19;19970;-68
2023/01/15 10:09:58;;;;;;;;;;;16.80;64.90;;;;;;7409227;19;19919;-68
2023/01/15 10:12:38;;;;;;;1.92;0.65;;;16.80;64.80;;;;;;7406362;19;20345;-67
2023/01/15 10:15:21;;;;;;;2.55;0.73;;;16.80;65.10;;;;;;7406774;19;19922;-68
2023/01/15 10:17:52;;;;;;;1.00;0.10;;;16.80;65.00;;;;;;7406603;19;19932;-68
2023/01/15 10:20:37;;;;;;;2.63;0.20;;;16.80;65.10;;;;;;7405900;19;19918;-68
2023/01/15 10:23:29;;;;;;;2.30;0.95;;;16.70;65.00;;;;;;7405431;19;19929;-68
2023/01/15 10:26:03;;;;;;;2.83;0.70;;;16.70;65.10;;;;;;7404451;19;19952;-68
2023/01/15 10:28:54;;;;;;;1.98;0.20;;;16.70;65.10;;;;;;7406653;19;19928;-68
2023/01/15 10:31:26;;;;;;;1.83;0.30;;;16.70;65.10;;;;;;7405038;19;19915;-68
2023/01/15 10:34:08;;;;;;;1.33;0.20;;;16.60;65.20;;;;;;7404749;19;19910;-68
2023/01/15 10:36:42;;;;;;;2.33;0.30;;;16.70;65.20;;;;;;7408029;19;20333;-68
2023/01/15 10:39:22;;;;;;;2.85;0.47;;;16.60;65.20;;;;;;7405652;19;19922;-68
2023/01/15 10:42:01;;;;;;;3.10;0.30;;;16.60;65.30;;;;;;7404894;19;19915;-68
2023/01/15 10:44:46;;;;;;;2.78;0.80;;;16.50;65.20;;;;;;7405297;19;19997;-68
2023/01/15 10:47:18;;;;;;;3.75;0.82;;;16.50;65.20;;;;;;7407086;19;19914;-68
2023/01/15 10:49:52;;;;;;;1.08;0.10;;;16.60;65.30;;;;;;7403772;19;19952;-68
2023/01/15 10:52:28;;;;;;;2.20;0.20;;;16.60;65.30;;;;;;7405451;19;19941;-68
2023/01/15 10:55:08;;;;;;;1.67;0.40;;;16.50;65.20;;;;;;7402926;19;19915;-68
2023/01/15 10:57:48;;;;;;;2.65;0.75;;;16.50;65.20;;;;;;7406477;19;19910;-68
2023/01/15 11:00:23;;;;;;;3.20;0.20;;;16.50;65.20;;;;;;7405823;19;19919;-68
2023/01/15 11:03:01;;;;;;;2.78;0.20;;;16.50;65.20;;;;;;7405038;19;19914;-68
2023/01/15 11:05:31;;;;;;;3.55;0.30;;;16.50;65.20;;;;;;7405719;19;19949;-68
2023/01/15 11:08:13;;;;;;;2.45;0.20;;;16.50;65.20;;;;;;7405242;19;19914;-67
2023/01/15 11:10:42;;;;;;;2.22;0.70;;;16.50;65.20;;;;;;7405390;19;19974;-68
2023/01/15 11:21:30;;;;;;;;;;;16.60;65.00;;;;;;7407457;19;19918;-68
2023/01/15 11:24:01;;;;;;;2.20;0.85;;;16.70;64.80;;;;;;7404744;19;19914;-68
2023/01/15 11:26:34;;;;;;;1.58;0.20;;;16.70;64.70;;;;;;7404586;19;19977;-68
2023/01/15 11:29:15;;;;;;;2.28;0.22;;;16.80;64.60;;;;;;7404825;19;19923;-68
2023/01/15 11:31:47;;;;;;;1.75;0.28;;;16.90;64.50;;;;;;7403286;19;19932;-68
2023/01/15 11:34:23;;;;;;;1.67;0.20;;;17.00;65.00;;;;;;7402808;19;19917;-68
2023/01/15 11:37:03;;;;;;;2.60;0.20;;;17.10;64.20;;;;;;7404041;19;19946;-68
2023/01/15 11:39:54;;;;;;;1.95;0.57;;;17.20;64.00;;;;;;7404360;19;20234;-68
2023/01/15 11:50:49;;;;;;;1.60;0.10;;;17.50;63.50;;;;;;7403910;19;19914;-68
2023/01/15 11:53:20;;;;;;;1.77;0.20;;;17.60;63.70;;;;;;7404031;19;20428;-68
2023/01/15 11:55:59;;;;;;;1.58;0.45;;;17.50;63.50;;;;;;7403560;19;19970;-68
2023/01/15 11:58:30;;;;;;;2.90;0.32;;;17.50;63.50;;;;;;7404041;19;19910;-68
2023/01/15 12:00:59;;;;;;;1.52;0.40;;;17.50;63.60;;;;;;7403531;19;20344;-68
2023/01/15 12:03:36;;;;;;;2.03;0.65;;;17.50;63.60;;;;;;7403250;19;19919;-69
2023/01/15 12:06:10;;;;;;;2.58;0.30;;;17.40;63.60;;;;;;7403286;19;19925;-68
2023/01/15 12:08:50;;;;;;;1.60;0.20;;;17.40;63.60;;;;;;7403411;19;19925;-68
2023/01/15 12:11:36;;;;;;;1.25;0.10;;;17.40;63.80;;;;;;7403581;19;19952;-68
2023/01/15 12:14:50;;;;;;;3.30;0.20;;;17.40;63.80;;;;;;7402537;19;19910;-69
2023/01/15 12:17:41;;;;;;;3.65;0.28;;;17.30;64.30;;;;;;7401050;19;19953;-68
2023/01/15 12:20:23;;;;;;;1.77;0.20;;;17.30;63.90;;;;;;7402885;19;20313;-68
2023/01/15 12:23:10;;;;;;;2.70;0.30;;;17.20;63.90;;;;;;7403286;19;19923;-68
2023/01/15 12:25:51;;;;;;;3.25;0.20;;;17.20;63.90;;;;;;7402504;19;19983;-68
2023/01/15 12:28:26;;;;;;;1.73;0.20;;;17.10;64.00;;;;;;7403108;19;19943;-68
2023/01/15 12:31:03;;;;;;;2.65;0.40;;;17.10;64.00;;;;;;7401901;19;19922;-67
2023/01/15 12:33:43;;;;;;;2.10;0.20;;;17.10;64.00;;;;;;7401992;19;20250;-68
2023/01/15 12:36:20;;;;;;;2.30;0.30;;;17.00;64.00;;;;;;7402547;19;19982;-69
2023/01/15 12:38:57;;;;;;;2.55;0.20;;;17.00;64.10;;;;;;7402206;19;19925;-68
2023/01/15 12:44:59;;;;;;;2.97;0.45;;;16.90;64.10;;;;;;7401770;19;19922;-69
2023/01/15 12:47:19;;;;;;;3.33;0.30;;;16.90;64.20;;;;;;7408828;19;19928;-68
2023/01/15 12:49:52;;;;;;;2.25;0.32;;;16.80;64.20;;;;;;7409195;19;19922;-68
2023/01/15 12:52:28;;;;;;;2.30;0.40;;;16.80;64.30;;;;;;7408843;19;20359;-68
2023/01/15 12:55:03;;;;;;;2.35;0.90;;;16.80;64.30;;;;;;7406414;19;19974;-68
2023/01/15 12:57:36;;;;;;;1.52;0.10;;;16.70;64.30;;;;;;7408794;19;19911;-68
2023/01/15 13:00:14;;;;;;;1.85;0.70;;;16.70;64.30;;;;;;7408898;19;19935;-68
2023/01/15 13:02:58;;;;;;;2.00;0.17;;;16.70;64.40;;;;;;7408779;19;20337;-69
2023/01/15 13:05:32;;;;;;;2.80;0.40;;;16.70;64.40;;;;;;7408318;19;20411;-68
2023/01/15 13:08:08;;;;;;;2.42;0.20;;;16.60;64.50;;;;;;7408511;19;19984;-68
2023/01/15 13:10:41;;;;;;;2.25;0.22;;;16.60;64.50;;;;;;7408224;19;19919;-69
2023/01/15 13:13:18;;;;;;;3.58;0.30;;;16.60;64.60;;;;;;7408464;19;19921;-68
2023/01/15 13:16:12;;;;;;;1.85;0.20;;;16.50;64.60;;;;;;7405401;19;20279;-68
2023/01/15 13:18:54;;;;;;;3.00;0.70;;;16.50;64.60;;;;;;7408207;19;19919;-69
2023/01/15 13:21:28;;;;;;;1.98;0.20;;;16.50;64.70;;;;;;7407972;19;20249;-69
2023/01/15 13:24:25;;;;;;;2.95;0.38;;;16.40;64.70;;;;;;7408212;19;19974;-68
2023/01/15 13:27:14;;;;;;;3.83;0.55;;;16.40;64.80;;;;;;7406734;19;19914;-69
2023/01/15 13:29:57;;;;;;;1.48;0.57;;;16.40;64.80;;;;;;7407857;19;20341;-69
2023/01/15 13:32:31;;;;;;;3.22;0.40;;;16.50;64.70;;;;;;7405508;19;19915;-68
2023/01/15 13:35:08;;;;;;;2.70;0.13;;;16.50;64.70;;;;;;7405989;19;19937;-68
2023/01/15 13:37:42;;;;;;;1.88;0.80;;;16.50;64.60;;;;;;7407173;19;19918;-68
2023/01/15 13:40:21;;;;;;;2.58;0.32;;;16.60;64.60;;;;;;7407552;19;20281;-68
2023/01/15 13:42:52;;;;;;;3.47;0.43;;;16.60;64.60;;;;;;7406162;19;20374;-69
2023/01/15 13:45:38;;;;;;;2.53;0.60;;;16.70;64.50;;;;;;7407899;19;19959;-68
2023/01/15 13:48:13;;;;;;;1.90;0.20;;;16.70;64.40;;;;;;7407413;19;19940;-68
2023/01/15 13:50:45;;;;;;;2.58;1.00;;;16.70;64.20;;;;;;7407202;19;19922;-68
2023/01/15 13:53:25;;;;;;;2.30;0.30;;;16.80;64.20;;;;;;7407097;19;19911;-69
2023/01/15 13:56:00;;;;;;;1.13;0.20;;;16.90;64.00;;;;;;7407565;19;19990;-68
2023/01/15 13:58:32;;;;;;;1.98;0.25;;;17.00;63.90;;;;;;7407614;19;20373;-68
2023/01/15 14:01:06;;;;;;;2.42;0.20;;;17.00;63.80;;;;;;7406835;19;19922;-68
2023/01/15 14:03:37;;;;;;;1.60;0.20;;;17.10;63.60;;;;;;7407038;19;19922;-68
2023/01/15 14:06:08;;;;;;;1.48;0.17;;;17.20;63.60;;;;;;7407281;19;19923;-68